Terminal Aerodrome Forecast
Issued by NWS Pocatello, ID

Home | Current Version | Previous Version | Text Only | Print | Product List | Glossary On
Versions: 1 2 3 4 5 6 7 8 9 10 11 12 13 14 15 16 17 18 19 20 21 22 23 24
580
FTUS45 KPIH 102330
TAFPIH
TAF
KPIH 102330Z 1100/1124 VRB03KT 6SM HZ SCT003 SCT200
     FM110500 11005KT 3SM BR BKN003
     FM110800 11005KT 1/2SM FZFG VV001
     FM111800 VRB03KT P6SM SCT003 SCT200=

USA.gov is the U.S. government's official web portal to all federal, state and local government web resources and services.